Time;durP1;ratioP1;P1;durP2;ratioP2;P2;SDS_P1;SDS_P2;PMS_P1;PMS_P2;Temp;Humidity;BMP_temperature;BMP_pressure;BME280_temperature;BME280_humidity;BME280_pressure;Samples;Min_cycle;Max_cycle;Signal;HPM_P1;HPM_P2
2021/12/31 00:01:21;;;;;;;24.50;3.58;;;12.10;99.90;;;;;;6239643;23;20031;-89
2021/12/31 00:03:46;;;;;;;18.85;3.13;;;12.00;99.90;;;;;;6213576;23;20012;-88
2021/12/31 00:06:12;;;;;;;15.90;3.47;;;12.20;99.90;;;;;;6240290;23;20462;-88
2021/12/31 00:08:38;;;;;;;22.15;3.40;;;11.90;99.90;;;;;;6214653;23;20494;-89
2021/12/31 00:11:03;;;;;;;17.52;3.55;;;12.00;99.90;;;;;;6213957;23;20033;-88
2021/12/31 00:13:30;;;;;;;18.33;2.80;;;11.90;99.90;;;;;;6214023;23;20383;-87
2021/12/31 00:15:56;;;;;;;17.30;3.25;;;11.90;99.90;;;;;;6215120;22;20008;-89
2021/12/31 00:18:22;;;;;;;22.65;3.83;;;11.90;99.90;;;;;;6218445;22;20333;-88
2021/12/31 00:20:48;;;;;;;21.27;3.88;;;11.90;99.90;;;;;;6219549;22;20153;-89
2021/12/31 00:23:16;;;;;;;26.75;3.78;;;11.90;99.90;;;;;;6219166;22;20019;-89
2021/12/31 00:25:43;;;;;;;20.27;3.63;;;12.00;99.90;;;;;;6219183;22;20027;-87
2021/12/31 00:28:10;;;;;;;25.42;3.72;;;11.90;99.90;;;;;;6220277;22;20091;-88
2021/12/31 00:30:37;;;;;;;30.17;4.10;;;11.80;99.90;;;;;;6218407;22;20026;-88
2021/12/31 00:33:04;;;;;;;21.92;4.00;;;11.80;99.90;;;;;;6219196;22;20033;-89
2021/12/31 00:35:32;;;;;;;22.02;3.78;;;11.90;99.90;;;;;;6219582;22;20027;-88
2021/12/31 00:37:58;;;;;;;26.55;3.80;;;12.00;99.90;;;;;;6219018;22;20011;-88
2021/12/31 00:40:25;;;;;;;25.83;4.30;;;11.80;99.90;;;;;;6219772;22;20054;-89
2021/12/31 00:42:51;;;;;;;26.60;3.95;;;11.80;99.90;;;;;;6218954;22;20023;-88
2021/12/31 00:45:19;;;;;;;24.35;3.15;;;12.30;99.90;;;;;;6219129;22;20373;-89
2021/12/31 00:47:45;;;;;;;26.98;4.43;;;11.80;99.90;;;;;;6219334;22;20047;-91
2021/12/31 00:50:12;;;;;;;22.27;3.65;;;11.80;99.90;;;;;;6220394;22;20041;-92
2021/12/31 00:52:38;;;;;;;28.25;4.07;;;11.80;99.90;;;;;;6218938;22;20016;-89
2021/12/31 00:55:05;;;;;;;22.48;4.00;;;11.70;99.90;;;;;;6219900;22;20090;-90
2021/12/31 00:57:31;;;;;;;27.15;3.83;;;11.70;99.90;;;;;;6219786;22;20020;-90
2021/12/31 00:59:57;;;;;;;21.02;3.45;;;11.70;99.90;;;;;;6218671;22;20012;-91
2021/12/31 01:02:26;;;;;;;25.52;3.85;;;11.70;99.90;;;;;;6220001;22;20481;-91
2021/12/31 01:04:52;;;;;;;22.40;3.78;;;11.90;99.90;;;;;;6219027;22;20491;-90
2021/12/31 01:07:18;;;;;;;24.50;3.90;;;11.70;99.90;;;;;;6218957;22;20007;-88
2021/12/31 01:09:44;;;;;;;23.70;4.10;;;11.80;99.90;;;;;;6219491;22;20020;-90
2021/12/31 01:12:11;;;;;;;25.25;4.35;;;11.50;99.90;;;;;;6220123;22;20016;-90
2021/12/31 01:14:41;;;;;;;27.45;4.38;;;11.60;99.90;;;;;;6218962;22;20011;-89
2021/12/31 01:17:12;;;;;;;23.42;3.50;;;12.20;99.90;;;;;;6218897;22;20023;-89
2021/12/31 01:19:46;;;;;;;22.42;4.43;;;11.60;99.90;;;;;;6217930;22;20020;-89
2021/12/31 01:22:16;;;;;;;25.08;3.83;;;12.30;99.90;;;;;;6219872;22;20026;-89
2021/12/31 01:24:42;;;;;;;33.17;4.75;;;11.50;99.90;;;;;;6219670;22;20062;-90
2021/12/31 01:27:09;;;;;;;24.60;3.75;;;11.80;99.90;;;;;;6219434;22;20077;-90
2021/12/31 01:29:34;;;;;;;23.20;4.78;;;11.70;99.90;;;;;;6219419;22;20308;-89
2021/12/31 01:32:00;;;;;;;17.58;3.05;;;11.60;99.90;;;;;;6219126;22;20094;-89
2021/12/31 01:34:26;;;;;;;23.08;3.95;;;11.70;99.90;;;;;;6218402;22;20019;-90
2021/12/31 01:36:52;;;;;;;29.65;4.82;;;11.60;99.90;;;;;;6219288;22;20069;-89
2021/12/31 01:39:18;;;;;;;21.85;3.88;;;12.20;99.90;;;;;;6219739;22;20019;-90
2021/12/31 01:41:44;;;;;;;22.70;4.10;;;11.50;99.90;;;;;;6217585;22;20019;-91
2021/12/31 01:44:09;;;;;;;26.38;4.28;;;11.60;99.90;;;;;;6218680;22;20016;-90
2021/12/31 01:46:39;;;;;;;25.92;4.22;;;11.60;99.90;;;;;;6219702;22;20051;-90
2021/12/31 01:49:17;;;;;;;26.52;4.20;;;12.40;99.90;;;;;;6218808;22;20016;-90
2021/12/31 01:51:43;;;;;;;20.95;4.05;;;11.70;99.90;;;;;;6220349;22;20016;-90
2021/12/31 01:54:11;;;;;;;26.20;4.68;;;11.60;99.90;;;;;;6221666;22;20057;-90
2021/12/31 01:56:38;;;;;;;28.75;4.30;;;11.60;99.90;;;;;;6220247;22;20019;-90
2021/12/31 01:59:06;;;;;;;24.25;4.68;;;12.30;99.90;;;;;;6221563;22;20062;-91
2021/12/31 02:01:34;;;;;;;17.27;3.40;;;11.60;99.90;;;;;;6220810;22;20015;-91
2021/12/31 02:03:59;;;;;;;18.40;3.97;;;12.20;99.90;;;;;;6220775;22;20449;-90
2021/12/31 02:06:26;;;;;;;25.95;3.88;;;11.60;99.90;;;;;;6221041;22;20016;-90
2021/12/31 02:08:52;;;;;;;17.10;3.65;;;11.60;99.90;;;;;;6220302;22;20019;-89
2021/12/31 02:11:18;;;;;;;21.17;3.60;;;11.70;99.90;;;;;;6221782;22;20031;-91
2021/12/31 02:13:44;;;;;;;18.30;3.50;;;11.60;99.90;;;;;;6220323;22;20016;-89
2021/12/31 02:16:09;;;;;;;22.73;3.65;;;11.90;99.90;;;;;;6220348;22;20064;-90
2021/12/31 02:18:35;;;;;;;25.42;3.45;;;12.40;99.90;;;;;;6220362;22;20027;-90
2021/12/31 02:21:03;;;;;;;26.48;4.80;;;11.80;99.90;;;;;;6220307;22;20050;-90
2021/12/31 02:23:38;;;;;;;27.23;3.97;;;12.30;99.90;;;;;;6220552;22;20067;-89
2021/12/31 02:26:07;;;;;;;21.00;3.55;;;12.10;99.90;;;;;;6221088;22;20077;-90
2021/12/31 02:28:33;;;;;;;20.75;4.38;;;11.70;99.90;;;;;;6220165;22;20011;-89
2021/12/31 02:31:03;;;;;;;20.38;4.00;;;11.70;99.90;;;;;;6219991;22;20378;-90
2021/12/31 02:33:29;;;;;;;24.95;4.97;;;11.80;99.90;;;;;;6220191;22;20440;-90
2021/12/31 02:35:55;;;;;;;18.35;3.80;;;11.80;99.90;;;;;;6220647;22;20015;-90
2021/12/31 02:38:21;;;;;;;26.92;4.28;;;11.80;99.90;;;;;;6219630;22;20019;-88
2021/12/31 02:40:46;;;;;;;19.15;3.90;;;11.80;99.90;;;;;;6219650;22;20016;-89
2021/12/31 02:43:12;;;;;;;17.25;3.58;;;11.90;99.90;;;;;;6220408;22;20039;-89
2021/12/31 02:45:40;;;;;;;16.67;3.03;;;11.90;99.90;;;;;;6218863;22;20016;-89
2021/12/31 02:48:06;;;;;;;24.13;4.10;;;12.30;99.90;;;;;;6220385;22;20375;-89
2021/12/31 02:50:35;;;;;;;17.02;3.50;;;12.10;99.90;;;;;;6220361;22;20035;-89
2021/12/31 02:53:04;;;;;;;19.45;3.47;;;12.10;99.90;;;;;;6219313;22;20447;-89
2021/12/31 02:55:30;;;;;;;18.88;3.05;;;12.60;99.90;;;;;;6220269;22;20054;-89
2021/12/31 02:57:58;;;;;;;22.38;3.75;;;12.00;99.90;;;;;;6219204;22;20023;-88
2021/12/31 03:00:25;;;;;;;19.67;3.85;;;12.00;99.90;;;;;;6219823;22;20047;-89
2021/12/31 03:02:51;;;;;;;19.15;3.50;;;12.00;99.90;;;;;;6218971;22;20020;-89
2021/12/31 03:05:18;;;;;;;17.48;3.30;;;12.00;99.90;;;;;;6218850;22;20505;-89
2021/12/31 03:07:46;;;;;;;19.02;3.53;;;12.30;99.90;;;;;;6219336;22;20070;-88
2021/12/31 03:10:13;;;;;;;12.93;2.63;;;12.60;99.90;;;;;;6219977;22;20023;-88
2021/12/31 03:12:40;;;;;;;14.45;3.67;;;12.30;99.90;;;;;;6218124;22;20016;-88
2021/12/31 03:15:07;;;;;;;15.85;3.00;;;12.10;99.90;;;;;;6219661;22;20019;-88
2021/12/31 03:17:33;;;;;;;19.33;3.70;;;12.10;99.90;;;;;;6218802;22;20016;-88
2021/12/31 03:20:10;;;;;;;18.75;3.17;;;12.10;99.90;;;;;;6243792;22;20459;-89
2021/12/31 03:22:36;;;;;;;18.88;2.92;;;12.20;99.90;;;;;;6219346;22;20448;-88
2021/12/31 03:25:02;;;;;;;17.25;3.42;;;12.60;99.90;;;;;;6219207;22;20461;-88
2021/12/31 03:27:28;;;;;;;12.27;2.65;;;12.20;99.90;;;;;;6218761;22;20011;-88
2021/12/31 03:29:53;;;;;;;12.88;2.75;;;12.20;99.90;;;;;;6219046;22;20014;-88
2021/12/31 03:32:19;;;;;;;15.68;2.95;;;12.20;99.90;;;;;;6219372;22;20020;-89
2021/12/31 03:34:44;;;;;;;12.68;2.72;;;12.50;99.90;;;;;;6217622;22;20023;-87
2021/12/31 03:37:10;;;;;;;13.25;2.58;;;12.40;99.90;;;;;;6244531;22;20459;-88
2021/12/31 03:39:36;;;;;;;16.55;2.97;;;12.50;99.90;;;;;;6244797;22;20034;-88
2021/12/31 03:42:02;;;;;;;16.98;3.08;;;12.40;99.90;;;;;;6218327;22;20212;-88
2021/12/31 03:44:27;;;;;;;12.98;3.28;;;12.30;99.90;;;;;;6218964;22;20392;-88
2021/12/31 03:46:53;;;;;;;18.00;3.25;;;12.40;99.90;;;;;;6218430;22;20062;-88
2021/12/31 03:49:19;;;;;;;13.27;2.88;;;12.50;99.90;;;;;;6217985;22;20012;-87
2021/12/31 03:51:44;;;;;;;13.18;2.55;;;12.30;99.90;;;;;;6219036;22;20024;-88
2021/12/31 03:54:10;;;;;;;12.45;2.90;;;12.20;99.90;;;;;;6243698;22;20015;-88
2021/12/31 03:56:36;;;;;;;12.82;3.20;;;12.50;99.90;;;;;;6218827;22;20447;-88
2021/12/31 03:59:02;;;;;;;14.52;3.10;;;12.20;99.90;;;;;;6218747;22;20012;-87
2021/12/31 04:01:28;;;;;;;12.55;2.70;;;12.20;99.90;;;;;;6217562;22;20023;-87
2021/12/31 04:03:55;;;;;;;15.52;2.78;;;12.30;99.90;;;;;;6218367;22;20495;-88
2021/12/31 04:06:21;;;;;;;16.70;3.35;;;12.50;99.90;;;;;;6218399;22;20127;-88
2021/12/31 04:08:48;;;;;;;17.77;3.17;;;12.40;99.90;;;;;;6218382;22;20046;-89
2021/12/31 04:11:14;;;;;;;11.15;2.50;;;12.20;99.90;;;;;;6219349;22;20014;-88
2021/12/31 04:13:40;;;;;;;15.60;2.78;;;12.20;99.90;;;;;;6218906;22;20015;-89
2021/12/31 04:16:06;;;;;;;14.68;3.03;;;12.30;99.90;;;;;;6217806;22;20023;-88
2021/12/31 04:18:31;;;;;;;12.55;2.50;;;12.80;99.90;;;;;;6218476;22;20023;-89
2021/12/31 04:20:58;;;;;;;12.23;2.55;;;12.60;99.90;;;;;;6219680;22;20443;-89
2021/12/31 04:23:34;;;;;;;13.15;2.55;;;12.30;99.90;;;;;;6243044;22;20398;-88
2021/12/31 04:26:00;;;;;;;12.18;2.30;;;12.30;99.90;;;;;;6244088;22;20023;-87
2021/12/31 04:28:27;;;;;;;16.13;2.63;;;12.20;99.90;;;;;;6244185;22;20066;-88
2021/12/31 04:30:53;;;;;;;12.85;2.88;;;12.20;99.90;;;;;;6242912;22;20015;-87
2021/12/31 04:33:19;;;;;;;15.02;3.28;;;13.00;99.90;;;;;;6217267;22;20030;-86
2021/12/31 04:35:45;;;;;;;14.68;2.95;;;12.40;99.90;;;;;;6218291;22;20022;-88
2021/12/31 04:38:11;;;;;;;16.80;3.15;;;12.30;99.90;;;;;;6217806;22;20466;-87
2021/12/31 04:40:37;;;;;;;12.65;3.25;;;12.40;99.90;;;;;;6219150;22;20424;-88
2021/12/31 04:43:02;;;;;;;16.35;3.42;;;12.30;99.90;;;;;;6244092;22;20027;-88
2021/12/31 04:45:28;;;;;;;12.38;2.72;;;12.50;99.90;;;;;;6217092;22;20019;-87
2021/12/31 04:47:54;;;;;;;9.35;2.22;;;12.70;99.90;;;;;;6243477;22;20016;-89
2021/12/31 04:50:19;;;;;;;17.08;3.03;;;12.50;99.90;;;;;;6218358;22;20016;-87
2021/12/31 04:52:46;;;;;;;11.85;2.33;;;12.40;99.90;;;;;;6217890;22;20091;-87
2021/12/31 04:55:12;;;;;;;14.13;2.50;;;12.40;99.90;;;;;;6219200;22;20076;-88
2021/12/31 04:57:38;;;;;;;12.05;2.78;;;12.30;99.90;;;;;;6242477;22;20069;-87
2021/12/31 05:00:06;;;;;;;9.15;1.95;;;12.70;99.90;;;;;;6243265;22;20024;-87
2021/12/31 05:02:32;;;;;;;14.02;2.67;;;12.40;99.90;;;;;;6217530;22;20462;-87
2021/12/31 05:04:57;;;;;;;13.40;2.53;;;12.70;99.90;;;;;;6217485;22;20039;-87
2021/12/31 05:07:23;;;;;;;14.75;2.85;;;12.40;99.90;;;;;;6218757;22;20019;-88
2021/12/31 05:09:49;;;;;;;13.68;2.40;;;12.40;99.90;;;;;;6218335;22;20427;-87
2021/12/31 05:12:20;;;;;;;8.95;2.13;;;12.50;99.90;;;;;;6217830;22;20447;-87
2021/12/31 05:14:47;;;;;;;7.60;1.90;;;12.90;99.90;;;;;;6218070;22;20011;-87
2021/12/31 05:17:13;;;;;;;12.73;2.22;;;12.90;99.90;;;;;;6213023;23;20024;-88
2021/12/31 05:19:43;;;;;;;8.55;2.00;;;12.40;99.90;;;;;;6211728;23;20019;-87
2021/12/31 05:22:10;;;;;;;13.18;2.05;;;12.40;99.90;;;;;;6213675;23;20099;-87
2021/12/31 05:24:36;;;;;;;8.25;2.03;;;12.70;99.90;;;;;;6238135;23;20016;-87
2021/12/31 05:27:02;;;;;;;14.52;3.03;;;12.40;99.90;;;;;;6239072;23;20030;-87
2021/12/31 05:29:28;;;;;;;9.57;2.40;;;12.30;99.90;;;;;;6215155;23;20012;-86
2021/12/31 05:31:53;;;;;;;12.43;2.55;;;12.40;99.90;;;;;;6214089;23;20405;-89
2021/12/31 05:34:20;;;;;;;9.27;2.22;;;12.30;99.90;;;;;;6213777;23;20016;-87
2021/12/31 05:36:46;;;;;;;6.07;2.10;;;12.30;99.90;;;;;;6214322;23;20059;-87
2021/12/31 05:39:13;;;;;;;8.68;2.63;;;12.20;99.90;;;;;;6215034;23;20016;-87
2021/12/31 05:41:40;;;;;;;11.40;2.30;;;12.60;99.90;;;;;;6214272;23;20012;-87
2021/12/31 05:44:06;;;;;;;9.98;2.45;;;12.80;99.90;;;;;;6215655;23;20016;-88
2021/12/31 05:46:32;;;;;;;6.93;2.22;;;12.20;99.90;;;;;;6239782;23;20016;-87
2021/12/31 05:48:58;;;;;;;12.55;3.15;;;12.20;99.90;;;;;;6213108;23;20019;-87
2021/12/31 05:51:26;;;;;;;13.02;2.72;;;12.10;99.90;;;;;;6214750;23;20020;-87
2021/12/31 05:53:52;;;;;;;14.90;3.53;;;12.50;99.90;;;;;;6213522;23;20020;-88
2021/12/31 05:56:18;;;;;;;8.18;2.97;;;12.10;99.90;;;;;;6214764;23;20383;-87
2021/12/31 05:58:44;;;;;;;7.90;2.70;;;12.20;99.90;;;;;;6214743;23;20486;-87
2021/12/31 06:01:09;;;;;;;12.82;3.20;;;12.20;99.90;;;;;;6213232;23;20016;-87
2021/12/31 06:03:35;;;;;;;8.18;2.65;;;12.10;99.90;;;;;;6213620;23;20020;-86
2021/12/31 06:06:01;;;;;;;8.45;2.75;;;12.40;99.90;;;;;;6213471;23;20070;-85
2021/12/31 06:08:27;;;;;;;10.80;2.85;;;12.40;99.90;;;;;;6238176;23;20008;-86
2021/12/31 06:10:52;;;;;;;13.85;2.80;;;12.20;99.90;;;;;;6239344;23;20501;-87
2021/12/31 06:13:19;;;;;;;7.88;2.30;;;12.20;99.90;;;;;;6213435;23;20016;-87
2021/12/31 06:15:47;;;;;;;8.65;2.30;;;12.30;99.90;;;;;;6238023;23;20016;-86
2021/12/31 06:18:13;;;;;;;7.15;2.33;;;12.30;99.90;;;;;;6239148;22;20514;-92
2021/12/31 06:20:41;;;;;;;10.18;2.47;;;12.30;99.90;;;;;;6217011;23;20024;-90
2021/12/31 06:23:07;;;;;;;9.38;2.70;;;12.60;99.90;;;;;;6215164;23;20107;-89
2021/12/31 06:25:33;;;;;;;9.32;2.70;;;12.30;99.90;;;;;;6216051;23;20135;-91
2021/12/31 06:28:00;;;;;;;11.20;2.72;;;12.30;99.90;;;;;;6216113;23;20448;-91
2021/12/31 06:30:27;;;;;;;6.53;2.17;;;12.80;99.90;;;;;;6215087;23;20027;-91
2021/12/31 06:32:53;;;;;;;9.35;3.13;;;13.00;99.90;;;;;;6214068;23;20655;-93
2021/12/31 06:35:19;;;;;;;8.02;2.60;;;12.30;99.90;;;;;;6215027;23;20467;-87
2021/12/31 06:37:47;;;;;;;10.80;2.85;;;12.30;99.90;;;;;;6216472;23;20065;-87
2021/12/31 06:40:14;;;;;;;9.20;2.58;;;12.40;99.90;;;;;;6215315;23;20107;-93
2021/12/31 06:42:40;;;;;;;7.25;2.42;;;12.20;99.90;;;;;;6216135;23;20427;-91
2021/12/31 06:45:09;;;;;;;9.93;2.45;;;12.30;99.90;;;;;;6217700;23;20159;-86
2021/12/31 06:47:34;;;;;;;9.00;2.67;;;12.20;99.90;;;;;;6240207;23;20020;-89
2021/12/31 06:50:00;;;;;;;10.07;2.70;;;12.40;99.90;;;;;;6214181;23;20071;-88
2021/12/31 06:52:26;;;;;;;8.85;2.60;;;12.30;99.90;;;;;;6215454;23;20038;-90
2021/12/31 06:54:52;;;;;;;8.02;2.17;;;12.50;99.90;;;;;;6216212;23;20016;-92
2021/12/31 06:57:17;;;;;;;11.65;2.63;;;12.50;99.90;;;;;;6214906;23;20107;-90
2021/12/31 06:59:43;;;;;;;6.55;2.20;;;12.50;99.90;;;;;;6216080;23;20089;-90
2021/12/31 07:02:09;;;;;;;7.00;2.30;;;12.80;99.90;;;;;;6215303;23;20019;-89
2021/12/31 07:04:35;;;;;;;7.95;3.10;;;12.70;99.90;;;;;;6214277;23;20079;-91
2021/12/31 07:07:01;;;;;;;9.35;2.53;;;12.50;99.90;;;;;;6215722;23;20020;-91
2021/12/31 07:09:26;;;;;;;9.77;2.72;;;12.20;99.90;;;;;;6215654;23;20008;-90
2021/12/31 07:11:52;;;;;;;10.32;2.58;;;12.20;99.90;;;;;;6214883;23;20090;-91
2021/12/31 07:14:18;;;;;;;10.18;2.22;;;12.30;99.90;;;;;;6216113;23;20012;-90
2021/12/31 07:16:43;;;;;;;7.63;2.40;;;12.20;99.90;;;;;;6214466;23;20020;-90
2021/12/31 07:19:09;;;;;;;6.85;1.90;;;12.60;99.90;;;;;;6214466;23;20051;-89
2021/12/31 07:21:35;;;;;;;7.32;2.28;;;12.20;99.90;;;;;;6215615;23;20031;-89
2021/12/31 07:24:00;;;;;;;7.00;1.77;;;12.20;99.90;;;;;;6215156;23;20016;-89
2021/12/31 07:26:26;;;;;;;8.27;1.83;;;12.40;99.90;;;;;;6214377;23;20051;-89
2021/12/31 07:28:52;;;;;;;8.02;1.98;;;12.30;99.90;;;;;;6214314;23;20460;-88
2021/12/31 07:31:18;;;;;;;7.60;2.20;;;12.10;99.90;;;;;;6214380;23;20027;-89
2021/12/31 07:33:43;;;;;;;6.15;1.85;;;12.10;99.90;;;;;;6213427;23;20009;-87
2021/12/31 07:36:09;;;;;;;5.63;1.55;;;12.30;99.90;;;;;;6239548;23;20020;-91
2021/12/31 07:38:38;;;;;;;9.70;2.00;;;12.30;99.90;;;;;;6216358;23;20026;-92
2021/12/31 07:41:05;;;;;;;7.53;1.88;;;12.00;99.90;;;;;;6214658;23;20020;-92
2021/12/31 07:43:31;;;;;;;9.73;2.22;;;12.70;99.90;;;;;;6215853;23;20099;-92
2021/12/31 07:46:00;;;;;;;6.95;2.15;;;12.00;99.90;;;;;;6214698;23;20019;-92
2021/12/31 07:48:25;;;;;;;7.72;2.42;;;11.90;99.90;;;;;;6215318;23;20016;-89
2021/12/31 07:50:52;;;;;;;6.30;1.90;;;12.50;99.90;;;;;;6214999;23;20024;-91
2021/12/31 07:53:18;;;;;;;8.38;1.77;;;11.90;99.90;;;;;;6214567;23;20015;-88
2021/12/31 07:55:44;;;;;;;10.88;1.92;;;12.00;99.90;;;;;;6214352;23;20024;-89
2021/12/31 07:58:16;;;;;;;6.03;2.00;;;11.90;99.90;;;;;;6214562;23;20016;-89
2021/12/31 08:00:42;;;;;;;6.53;1.88;;;12.60;99.90;;;;;;6216545;23;20019;-89
2021/12/31 08:03:17;;;;;;;6.15;2.13;;;12.00;99.90;;;;;;6214134;23;20117;-89
2021/12/31 08:05:43;;;;;;;5.28;1.92;;;12.00;99.90;;;;;;6214681;23;20031;-91
2021/12/31 08:08:09;;;;;;;7.88;1.80;;;12.00;99.90;;;;;;6214550;23;20017;-88
2021/12/31 08:10:35;;;;;;;9.70;2.60;;;12.20;99.90;;;;;;6214425;23;20090;-90
2021/12/31 08:13:01;;;;;;;6.63;1.90;;;12.50;99.90;;;;;;6214134;23;20039;-90
2021/12/31 08:15:28;;;;;;;9.68;1.90;;;12.00;99.90;;;;;;6213891;23;20016;-89
2021/12/31 08:17:54;;;;;;;8.60;2.33;;;12.20;99.90;;;;;;6214582;23;20023;-92
2021/12/31 08:20:22;;;;;;;5.80;1.70;;;12.00;99.90;;;;;;6216714;23;20080;-95
2021/12/31 08:22:49;;;;;;;7.65;2.25;;;12.00;99.90;;;;;;6214883;23;20027;-91
2021/12/31 08:25:15;;;;;;;8.38;2.22;;;12.30;99.90;;;;;;6215005;23;20016;-93
2021/12/31 08:27:40;;;;;;;5.78;1.95;;;12.00;99.90;;;;;;6217675;23;20062;-93
2021/12/31 08:30:08;;;;;;;9.35;2.30;;;12.40;99.90;;;;;;6216323;23;20023;-87
2021/12/31 08:32:34;;;;;;;8.50;1.95;;;12.00;99.90;;;;;;6238734;23;20020;-90
2021/12/31 08:35:01;;;;;;;6.57;2.00;;;12.40;99.90;;;;;;6213374;23;20008;-89
2021/12/31 08:37:27;;;;;;;6.00;2.10;;;12.10;99.90;;;;;;6212711;23;20024;-87
2021/12/31 08:39:52;;;;;;;5.70;1.90;;;12.30;99.90;;;;;;6213582;23;20020;-88
2021/12/31 08:42:18;;;;;;;6.88;2.35;;;12.10;99.90;;;;;;6213143;23;20095;-88
2021/12/31 08:44:44;;;;;;;7.15;2.30;;;12.30;99.90;;;;;;6212649;23;20016;-88
2021/12/31 08:47:10;;;;;;;9.38;2.42;;;12.10;99.90;;;;;;6213094;23;20012;-88
2021/12/31 08:49:36;;;;;;;7.10;2.08;;;12.10;99.90;;;;;;6211841;23;20020;-86
2021/12/31 08:52:02;;;;;;;9.18;2.28;;;12.20;99.90;;;;;;6213225;23;20019;-87
2021/12/31 08:54:29;;;;;;;6.75;2.03;;;12.20;99.90;;;;;;6239340;23;20039;-87
2021/12/31 08:56:55;;;;;;;5.60;2.05;;;12.50;99.90;;;;;;6212501;23;20081;-89
2021/12/31 08:59:21;;;;;;;9.02;2.28;;;12.40;99.90;;;;;;6213172;23;20464;-89
2021/12/31 09:01:46;;;;;;;7.40;2.25;;;12.20;99.90;;;;;;6213236;23;20008;-89
2021/12/31 09:04:12;;;;;;;6.78;2.22;;;12.30;99.90;;;;;;6215225;23;20205;-91
2021/12/31 09:06:38;;;;;;;9.63;2.53;;;12.60;99.90;;;;;;6211006;23;20748;-93
2021/12/31 09:09:06;;;;;;;5.40;2.15;;;12.30;99.90;;;;;;6209073;23;20016;-89
2021/12/31 09:11:31;;;;;;;9.60;3.00;;;12.30;99.90;;;;;;6210774;23;20115;-93
2021/12/31 09:13:58;;;;;;;5.78;2.45;;;12.30;99.90;;;;;;6210611;23;20016;-93
2021/12/31 09:16:24;;;;;;;8.90;2.67;;;12.30;99.90;;;;;;6212703;23;20020;-88
2021/12/31 09:18:50;;;;;;;7.25;2.50;;;12.30;99.90;;;;;;6208702;23;20103;-94
2021/12/31 09:21:17;;;;;;;8.13;2.80;;;12.30;99.90;;;;;;6211591;23;20024;-92
2021/12/31 09:23:45;;;;;;;8.50;2.20;;;12.30;99.90;;;;;;6210102;23;20043;-88
2021/12/31 09:26:11;;;;;;;6.93;2.15;;;12.20;99.90;;;;;;6210588;23;20114;-90
2021/12/31 09:28:37;;;;;;;8.10;3.05;;;12.20;99.90;;;;;;6210288;23;20103;-92
2021/12/31 09:31:05;;;;;;;7.38;2.20;;;12.60;99.90;;;;;;6209433;23;20047;-92
2021/12/31 09:33:31;;;;;;;8.10;2.45;;;12.20;99.90;;;;;;6209889;23;20040;-90
2021/12/31 09:35:57;;;;;;;10.23;2.58;;;12.20;99.90;;;;;;6210456;23;20090;-92
2021/12/31 09:38:23;;;;;;;9.35;2.47;;;12.20;99.90;;;;;;6210877;23;20023;-89
2021/12/31 09:40:49;;;;;;;5.88;2.45;;;12.20;99.90;;;;;;6208912;23;20008;-93
2021/12/31 09:43:15;;;;;;;7.85;2.28;;;12.20;99.90;;;;;;6210383;23;20031;-92
2021/12/31 09:45:42;;;;;;;8.23;2.58;;;12.20;99.90;;;;;;6209633;23;20020;-92
2021/12/31 09:48:11;;;;;;;7.00;2.47;;;12.20;99.90;;;;;;6209593;23;20016;-92
2021/12/31 09:50:40;;;;;;;9.50;2.60;;;12.30;99.90;;;;;;6210521;23;20016;-93
2021/12/31 09:53:07;;;;;;;9.98;2.75;;;12.20;99.90;;;;;;6209751;23;20020;-92
2021/12/31 09:55:45;;;;;;;8.15;2.70;;;12.20;99.90;;;;;;6210384;23;20034;-93
2021/12/31 09:58:13;;;;;;;12.73;2.55;;;12.20;99.90;;;;;;6211240;23;20016;-92
2021/12/31 10:00:42;;;;;;;10.05;2.63;;;12.20;99.90;;;;;;6209385;23;20351;-92
2021/12/31 10:03:25;;;;;;;8.10;2.38;;;12.20;99.90;;;;;;6209512;23;20016;-89
2021/12/31 10:05:52;;;;;;;9.10;2.80;;;12.20;99.90;;;;;;6209910;23;20020;-95
2021/12/31 10:08:21;;;;;;;8.80;2.58;;;12.60;99.90;;;;;;6210024;23;20016;-95
2021/12/31 10:11:06;;;;;;;14.80;2.92;;;12.10;99.90;;;;;;6211424;23;20027;-93
2021/12/31 10:13:34;;;;;;;9.20;3.08;;;12.00;99.90;;;;;;6214736;23;20039;-94
2021/12/31 10:16:00;;;;;;;7.93;2.35;;;12.70;99.90;;;;;;6214918;22;20028;-96
2021/12/31 10:19:20;;;;;;;13.20;2.90;;;11.80;99.90;;;;;;6235987;22;20028;-96
2021/12/31 10:21:49;;;;;;;8.30;3.13;;;12.00;99.90;;;;;;6236106;22;20003;-94
2021/12/31 10:24:25;;;;;;;6.93;2.83;;;12.20;99.90;;;;;;6253363;22;20117;-96
2021/12/31 10:26:53;;;;;;;12.48;2.85;;;11.80;99.90;;;;;;6230279;22;20023;-96
2021/12/31 10:29:21;;;;;;;13.77;3.38;;;12.30;99.90;;;;;;6249509;22;20404;-94
2021/12/31 10:31:51;;;;;;;12.00;3.20;;;12.60;99.90;;;;;;6221071;22;20088;-93
2021/12/31 10:34:32;;;;;;;13.75;3.03;;;11.90;99.90;;;;;;6221048;22;20022;-96
2021/12/31 10:37:03;;;;;;;10.98;3.03;;;11.90;99.90;;;;;;6221028;22;20019;-95
2021/12/31 10:39:32;;;;;;;12.80;3.00;;;11.90;99.90;;;;;;6221969;22;20008;-92
2021/12/31 10:41:59;;;;;;;13.30;3.40;;;11.90;99.90;;;;;;6220999;22;20022;-94
2021/12/31 10:44:40;;;;;;;12.45;3.63;;;11.80;99.90;;;;;;6220368;22;20027;-93
2021/12/31 10:47:10;;;;;;;11.00;3.15;;;11.70;99.90;;;;;;6221283;22;20023;-95
2021/12/31 10:50:02;;;;;;;12.98;3.47;;;11.90;99.90;;;;;;6222726;22;20015;-94
2021/12/31 10:52:37;;;;;;;10.30;3.05;;;11.80;99.90;;;;;;6221417;22;20016;-95
2021/12/31 10:55:18;;;;;;;7.75;3.30;;;11.90;99.90;;;;;;6223044;22;20023;-92
2021/12/31 10:57:45;;;;;;;10.40;3.63;;;11.80;99.90;;;;;;6223573;22;20443;-95
2021/12/31 11:00:12;;;;;;;9.93;3.13;;;11.80;99.90;;;;;;6225980;22;20020;-96
2021/12/31 11:02:40;;;;;;;8.50;2.95;;;11.80;99.90;;;;;;6229107;22;20024;-95
2021/12/31 11:05:07;;;;;;;9.75;3.33;;;12.10;99.90;;;;;;6221863;22;20443;-96
2021/12/31 11:07:34;;;;;;;12.48;3.75;;;11.70;99.90;;;;;;6222988;22;20411;-95
2021/12/31 11:10:04;;;;;;;12.15;3.60;;;12.30;99.90;;;;;;6221358;22;20067;-95
2021/12/31 11:12:31;;;;;;;12.23;4.55;;;11.70;99.90;;;;;;6245966;22;20015;-95
2021/12/31 11:14:57;;;;;;;14.93;4.60;;;11.70;99.90;;;;;;6220085;22;20020;-95
2021/12/31 11:17:24;;;;;;;9.52;4.03;;;12.30;99.90;;;;;;6215121;23;20035;-94
2021/12/31 11:20:20;;;;;;;12.07;3.85;;;11.80;99.90;;;;;;6220813;23;20127;-95
2021/12/31 11:22:46;;;;;;;9.77;3.58;;;11.70;99.90;;;;;;6219260;23;20459;-90
2021/12/31 11:25:30;;;;;;;11.18;4.00;;;11.70;99.90;;;;;;6215682;23;20017;-89
2021/12/31 11:27:58;;;;;;;18.52;5.15;;;11.60;99.90;;;;;;6215216;23;20172;-95
2021/12/31 11:30:48;;;;;;;12.40;4.22;;;12.30;99.90;;;;;;6215409;23;20027;-93
2021/12/31 11:33:18;;;;;;;14.15;4.90;;;12.40;99.90;;;;;;6214310;23;20108;-95
2021/12/31 11:36:11;;;;;;;14.10;4.47;;;12.00;99.90;;;;;;6218403;23;20071;-96
2021/12/31 11:38:39;;;;;;;10.60;4.60;;;11.70;99.90;;;;;;6219047;23;20024;-96
2021/12/31 11:41:20;;;;;;;12.85;4.35;;;11.60;99.90;;;;;;6219850;23;20020;-96
2021/12/31 11:44:05;;;;;;;11.93;4.07;;;11.60;99.90;;;;;;6225558;23;20012;-94
2021/12/31 11:46:35;;;;;;;8.18;4.18;;;12.00;99.90;;;;;;6214762;23;20016;-94
2021/12/31 11:49:07;;;;;;;16.33;5.20;;;11.90;99.90;;;;;;6217080;23;20008;-95
2021/12/31 11:51:35;;;;;;;11.67;3.90;;;12.20;99.90;;;;;;6215704;23;20020;-96
2021/12/31 11:54:01;;;;;;;8.73;3.97;;;11.60;99.90;;;;;;6214520;23;20037;-96
2021/12/31 11:56:36;;;;;;;12.38;4.38;;;11.60;99.90;;;;;;6216058;23;20044;-94
2021/12/31 11:59:07;;;;;;;14.38;4.32;;;11.90;99.90;;;;;;6215099;23;20055;-93
2021/12/31 12:01:36;;;;;;;12.45;3.97;;;11.50;99.90;;;;;;6214194;23;20027;-95
2021/12/31 12:04:25;;;;;;;10.57;4.30;;;12.10;99.90;;;;;;6215446;23;20042;-96
2021/12/31 12:07:04;;;;;;;14.88;4.60;;;11.60;99.90;;;;;;6224609;23;20086;-96
2021/12/31 12:09:36;;;;;;;10.10;3.90;;;11.50;99.90;;;;;;6258589;23;20016;-96
2021/12/31 12:12:05;;;;;;;12.00;4.40;;;11.50;99.90;;;;;;6217074;23;20024;-96
2021/12/31 12:14:37;;;;;;;12.13;4.38;;;11.50;99.90;;;;;;6223221;23;20012;-95
2021/12/31 12:20:40;;;;;;;9.73;3.78;;;11.50;99.90;;;;;;6221096;22;20031;-95
2021/12/31 12:23:12;;;;;;;7.72;3.33;;;11.50;99.90;;;;;;6217975;23;20050;-94
2021/12/31 12:25:38;;;;;;;11.80;3.60;;;11.50;99.90;;;;;;6218634;23;20047;-94
2021/12/31 12:28:13;;;;;;;10.07;3.63;;;12.10;99.90;;;;;;6221775;22;20016;-94
2021/12/31 12:30:47;;;;;;;8.20;3.78;;;11.50;99.90;;;;;;6219174;23;20023;-96
2021/12/31 12:33:19;;;;;;;8.85;4.13;;;11.50;99.90;;;;;;6217871;23;20047;-91
2021/12/31 12:35:49;;;;;;;9.52;3.55;;;11.40;99.90;;;;;;6216303;23;20024;-94
2021/12/31 12:38:19;;;;;;;7.90;3.55;;;11.50;99.90;;;;;;6217225;23;20516;-94
2021/12/31 12:40:55;;;;;;;7.00;3.25;;;12.20;99.90;;;;;;6217132;23;20016;-94
2021/12/31 12:43:29;;;;;;;6.35;3.30;;;11.50;99.90;;;;;;6216762;23;20018;-94
2021/12/31 12:46:13;;;;;;;7.88;3.33;;;11.50;99.90;;;;;;6235615;23;20428;-93
2021/12/31 12:48:57;;;;;;;7.30;3.53;;;12.00;99.90;;;;;;6219550;23;20012;-95